createdAt,value
2022-10-12T00:01:47.354Z,87.88
2022-10-12T00:04:13.677Z,87.85
2022-10-12T00:06:40.001Z,87.67
2022-10-12T00:09:06.436Z,87.48
2022-10-12T00:11:32.883Z,87.40
2022-10-12T00:13:59.469Z,87.72
2022-10-12T00:16:30.852Z,87.75
2022-10-12T00:18:58.248Z,87.89
2022-10-12T00:21:26.294Z,88.10
2022-10-12T00:23:55.643Z,88.12
2022-10-12T00:26:23.581Z,88.09
2022-10-12T00:28:58.590Z,87.95
2022-10-12T00:31:26.237Z,88.06
2022-10-12T00:33:53.044Z,88.25
2022-10-12T00:36:19.332Z,88.28
2022-10-12T00:38:46.794Z,88.39
2022-10-12T00:41:15.069Z,88.50
2022-10-12T00:43:42.956Z,88.55
2022-10-12T00:46:18.974Z,88.58
2022-10-12T00:48:49.899Z,88.42
2022-10-12T00:51:19.387Z,88.60
2022-10-12T00:53:52.396Z,88.63
2022-10-12T00:56:24.046Z,88.54
2022-10-12T00:58:51.711Z,88.49
2022-10-12T01:01:18.782Z,88.56
2022-10-12T01:03:45.557Z,88.52
2022-10-12T01:06:12.050Z,88.36
2022-10-12T01:08:38.682Z,88.21
2022-10-12T01:11:05.328Z,88.06
2022-10-12T01:13:32.025Z,88.06
2022-10-12T01:16:04.023Z,87.97
2022-10-12T01:18:40.261Z,88.00
2022-10-12T01:21:23.535Z,88.16
2022-10-12T01:24:15.025Z,88.34
2022-10-12T01:27:00.216Z,88.38
2022-10-12T01:29:30.067Z,88.55
2022-10-12T01:32:03.804Z,88.74
2022-10-12T01:34:45.917Z,89.60
2022-10-12T01:37:22.967Z,89.61
2022-10-12T01:39:55.949Z,89.92
2022-10-12T01:42:37.147Z,89.87
2022-10-12T01:45:10.797Z,89.85
2022-10-12T01:47:39.584Z,90.01
2022-10-12T01:50:10.771Z,90.16
2022-10-12T01:53:18.114Z,90.53
2022-10-12T01:56:04.317Z,90.72
2022-10-12T01:58:44.909Z,90.87
2022-10-12T02:01:38.578Z,90.99
2022-10-12T02:04:16.143Z,91.19
2022-10-12T02:06:52.565Z,91.14
2022-10-12T02:09:25.237Z,91.08
2022-10-12T02:11:55.225Z,91.10
2022-10-12T02:14:25.796Z,91.15
2022-10-12T02:16:59.476Z,91.28
2022-10-12T02:19:30.201Z,91.28
2022-10-12T02:22:01.625Z,91.41
2022-10-12T02:24:30.383Z,91.28
2022-10-12T02:26:57.367Z,91.30
2022-10-12T02:29:30.491Z,91.39
2022-10-12T02:32:07.272Z,91.75
2022-10-12T02:34:41.475Z,91.52
2022-10-12T02:37:32.020Z,91.80
2022-10-12T02:40:06.885Z,92.15
2022-10-12T02:43:08.304Z,92.07
2022-10-12T02:45:26.531Z,92.21
2022-10-12T02:47:56.239Z,92.09
2022-10-12T02:50:24.888Z,92.20
2022-10-12T02:52:52.755Z,92.22
2022-10-12T02:55:19.933Z,92.32
2022-10-12T02:57:46.289Z,92.66
2022-10-12T03:00:13.255Z,92.69
2022-10-12T03:02:39.562Z,92.85
2022-10-12T03:05:06.316Z,93.01
2022-10-12T03:07:32.633Z,92.98
2022-10-12T03:09:58.933Z,92.99
2022-10-12T03:12:25.275Z,93.05
2022-10-12T03:14:51.585Z,93.07
2022-10-12T03:17:17.889Z,92.96
2022-10-12T03:19:44.236Z,93.04
2022-10-12T03:22:10.592Z,93.02
2022-10-12T03:24:36.921Z,92.83
2022-10-12T03:27:03.295Z,92.86
2022-10-12T03:29:29.627Z,92.85
2022-10-12T03:31:55.946Z,93.00
2022-10-12T03:34:22.497Z,93.03
2022-10-12T03:36:48.792Z,93.04
2022-10-12T03:39:15.109Z,93.11
2022-10-12T03:41:41.420Z,93.10
2022-10-12T03:44:07.734Z,93.21
2022-10-12T03:46:34.066Z,93.26
2022-10-12T03:49:00.362Z,93.19
2022-10-12T03:51:27.376Z,93.23
2022-10-12T03:53:53.680Z,93.14
2022-10-12T03:56:19.999Z,93.19
2022-10-12T03:58:46.347Z,93.21
2022-10-12T04:01:12.687Z,93.21
2022-10-12T04:03:39.042Z,93.27
2022-10-12T04:06:05.600Z,93.16
2022-10-12T04:08:31.952Z,93.16
2022-10-12T04:10:58.271Z,93.13
2022-10-12T04:13:24.725Z,93.02
2022-10-12T04:15:51.101Z,92.89
2022-10-12T04:18:17.523Z,92.87
2022-10-12T04:20:47.453Z,92.66
2022-10-12T04:23:13.764Z,92.63
2022-10-12T04:25:40.069Z,92.54
2022-10-12T04:28:06.373Z,92.52
2022-10-12T04:30:33.618Z,92.51
2022-10-12T04:32:59.998Z,92.49
2022-10-12T04:35:26.513Z,92.56
2022-10-12T04:37:53.119Z,92.57
2022-10-12T04:40:19.471Z,92.42
2022-10-12T04:42:45.766Z,92.54
2022-10-12T04:45:12.173Z,92.56
2022-10-12T04:47:38.905Z,92.58
2022-10-12T04:50:06.319Z,92.59
2022-10-12T04:52:32.667Z,92.57
2022-10-12T04:54:59.003Z,92.54
2022-10-12T04:57:25.331Z,92.61
2022-10-12T04:59:51.627Z,92.53
2022-10-12T05:02:17.940Z,92.49
2022-10-12T05:04:44.300Z,92.35
2022-10-12T05:07:10.620Z,92.23
2022-10-12T05:09:36.923Z,92.15
2022-10-12T05:12:03.285Z,92.05
2022-10-12T05:14:33.587Z,92.14
2022-10-12T05:17:03.065Z,91.97
2022-10-12T05:19:29.428Z,91.89
2022-10-12T05:21:55.805Z,91.94
2022-10-12T05:24:22.109Z,91.68
2022-10-12T05:26:48.500Z,91.67
2022-10-12T05:29:14.844Z,91.64
2022-10-12T05:31:41.220Z,91.58
2022-10-12T05:34:07.564Z,91.68
2022-10-12T05:36:33.873Z,91.73
2022-10-12T05:39:00.166Z,91.65
2022-10-12T05:41:26.473Z,91.79
2022-10-12T05:43:53.547Z,91.70
2022-10-12T05:46:19.893Z,91.57
2022-10-12T05:48:46.316Z,91.72
2022-10-12T05:51:12.628Z,91.71
2022-10-12T05:53:39.019Z,91.70
2022-10-12T05:56:05.766Z,91.65
2022-10-12T05:58:32.174Z,91.69
2022-10-12T06:01:12.113Z,91.73
2022-10-12T06:03:42.987Z,91.46
2022-10-12T06:06:09.526Z,91.35
2022-10-12T06:08:36.060Z,91.41
2022-10-12T06:11:02.712Z,91.37
2022-10-12T06:13:29.200Z,91.48
2022-10-12T06:15:55.569Z,91.47
2022-10-12T06:18:22.032Z,91.49
2022-10-12T06:20:49.669Z,91.57
2022-10-12T06:23:16.157Z,91.54
2022-10-12T06:25:42.532Z,91.67
2022-10-12T06:28:08.957Z,91.68
2022-10-12T06:30:35.252Z,91.94
2022-10-12T06:33:01.648Z,91.97
2022-10-12T06:35:27.957Z,91.93
2022-10-12T06:37:54.287Z,92.43
2022-10-12T06:40:20.998Z,92.59
2022-10-12T06:42:49.327Z,92.65
2022-10-12T06:45:16.247Z,92.55
2022-10-12T06:47:43.008Z,92.63
2022-10-12T06:50:09.895Z,92.50
2022-10-12T06:52:36.720Z,92.36
2022-10-12T06:55:04.778Z,92.36
2022-10-12T06:57:31.357Z,92.36
2022-10-12T06:59:57.716Z,92.48
2022-10-12T07:02:24.036Z,92.42
2022-10-12T07:04:51.523Z,92.70
2022-10-12T07:07:18.744Z,92.56
2022-10-12T07:09:45.165Z,92.58
2022-10-12T07:12:11.551Z,92.59
2022-10-12T07:14:37.917Z,92.65
2022-10-12T07:17:04.267Z,92.61
2022-10-12T07:19:30.580Z,92.65
2022-10-12T07:21:56.890Z,92.62
2022-10-12T07:24:23.224Z,92.60
2022-10-12T07:26:50.977Z,92.54
2022-10-12T07:29:17.277Z,92.35
2022-10-12T07:31:46.417Z,92.47
2022-10-12T07:34:14.764Z,92.37
2022-10-12T07:36:58.530Z,92.48
2022-10-12T07:39:25.798Z,92.51
2022-10-12T07:41:52.734Z,92.62
2022-10-12T07:44:20.045Z,92.73
2022-10-12T07:46:46.688Z,92.40
2022-10-12T07:49:13.666Z,92.51
2022-10-12T07:51:40.413Z,92.60
2022-10-12T07:54:07.089Z,92.28
2022-10-12T07:56:34.361Z,91.95
2022-10-12T07:59:01.161Z,91.53
2022-10-12T08:01:29.996Z,91.38
2022-10-12T08:04:01.146Z,90.50
2022-10-12T08:06:30.928Z,90.03
2022-10-12T08:08:58.970Z,89.05
2022-10-12T08:11:25.678Z,88.98
2022-10-12T08:13:52.042Z,88.66
2022-10-12T08:16:20.564Z,88.20
2022-10-12T08:18:47.156Z,88.09
2022-10-12T08:21:15.297Z,87.69
2022-10-12T08:23:41.865Z,87.69
2022-10-12T08:26:08.195Z,87.47
2022-10-12T08:28:35.792Z,86.95
2022-10-12T08:31:06.652Z,86.44
2022-10-12T08:33:32.948Z,86.04
2022-10-12T08:36:03.135Z,86.16
2022-10-12T08:38:29.567Z,85.36
2022-10-12T08:41:02.152Z,84.16
2022-10-12T08:43:46.589Z,83.64
2022-10-12T08:46:13.021Z,82.24
2022-10-12T08:48:56.469Z,82.30
2022-10-12T08:51:27.336Z,82.14
2022-10-12T08:56:26.275Z,81.19
2022-10-12T08:58:53.660Z,80.16
2022-10-12T09:01:28.466Z,78.29
2022-10-12T09:04:22.493Z,77.33
2022-10-12T09:09:32.925Z,76.99
2022-10-12T09:12:31.229Z,75.53
2022-10-12T09:15:02.537Z,74.70
2022-10-12T09:20:32.645Z,73.01
2022-10-12T09:25:29.005Z,73.46
2022-10-12T09:28:06.073Z,72.23
2022-10-12T09:30:39.728Z,71.92
2022-10-12T09:33:32.484Z,71.36
2022-10-12T09:35:59.143Z,70.24
2022-10-12T09:38:25.541Z,70.14
2022-10-12T09:40:52.069Z,70.13
2022-10-12T09:43:18.407Z,70.18
2022-10-12T09:45:45.471Z,70.16
2022-10-12T09:48:16.325Z,69.94
2022-10-12T09:53:26.211Z,70.35
2022-10-12T09:56:01.095Z,69.77
2022-10-12T09:58:28.980Z,69.16
2022-10-12T10:01:19.463Z,68.83
2022-10-12T10:03:48.758Z,68.94
2022-10-12T10:11:21.422Z,68.97
2022-10-12T10:13:51.978Z,67.97
2022-10-12T10:16:20.081Z,68.00
2022-10-12T10:21:25.461Z,67.02
2022-10-12T10:23:56.747Z,67.65
2022-10-12T10:26:24.384Z,67.91
2022-10-12T10:28:56.478Z,67.63
2022-10-12T10:31:27.629Z,67.70
2022-10-12T10:34:15.891Z,68.05
2022-10-12T10:36:49.125Z,68.34
2022-10-12T10:41:47.760Z,66.95
2022-10-12T10:44:25.409Z,66.47
2022-10-12T10:46:53.638Z,65.91
2022-10-12T10:49:36.587Z,64.24
2022-10-12T10:52:04.688Z,63.82
2022-10-12T10:54:34.274Z,61.76
2022-10-12T10:57:21.400Z,61.79
2022-10-12T11:00:37.468Z,61.34
2022-10-12T11:03:24.879Z,61.76
2022-10-12T11:08:30.367Z,61.70
2022-10-12T11:11:03.676Z,60.48
2022-10-12T11:13:55.335Z,60.85
2022-10-12T11:16:37.220Z,60.42
2022-10-12T11:21:52.726Z,59.70
2022-10-12T11:24:26.583Z,59.59
2022-10-12T11:32:13.077Z,60.13
2022-10-12T11:34:49.539Z,60.06
2022-10-12T11:44:50.197Z,61.96
2022-10-12T11:47:20.662Z,60.69
2022-10-12T11:54:54.635Z,61.46
2022-10-12T11:57:28.808Z,60.94
2022-10-12T12:00:06.786Z,60.34
2022-10-12T12:02:43.783Z,59.00
2022-10-12T12:05:16.835Z,58.89
2022-10-12T12:07:50.147Z,58.69
2022-10-12T12:13:18.100Z,60.40
2022-10-12T12:20:43.103Z,60.43
2022-10-12T12:23:26.270Z,60.79
2022-10-12T12:26:16.806Z,59.85
2022-10-12T12:28:46.689Z,59.87
2022-10-12T12:36:29.428Z,62.38
2022-10-12T12:38:56.305Z,62.40
2022-10-12T12:41:28.512Z,59.34
2022-10-12T12:46:47.012Z,59.77
2022-10-12T12:49:47.628Z,60.97
2022-10-12T12:52:21.551Z,58.47
2022-10-12T12:57:58.608Z,57.66
2022-10-12T13:05:50.367Z,55.64
2022-10-12T13:08:48.800Z,57.08
2022-10-12T13:20:15.152Z,56.32
2022-10-12T13:22:42.038Z,56.88
2022-10-12T13:27:45.432Z,56.76
2022-10-12T13:32:43.932Z,57.69
2022-10-12T13:37:40.774Z,60.43
2022-10-12T13:40:27.582Z,59.96
2022-10-12T13:47:46.613Z,59.02
2022-10-12T13:50:18.706Z,57.91
2022-10-12T13:52:53.548Z,58.38
2022-10-12T13:55:26.386Z,59.62
2022-10-12T14:03:13.335Z,60.04
2022-10-12T14:08:15.731Z,61.90
2022-10-12T14:10:44.447Z,60.04
2022-10-12T14:13:15.411Z,60.59
2022-10-12T14:15:42.599Z,60.71
2022-10-12T14:21:27.792Z,59.71
2022-10-12T14:26:25.111Z,60.79
2022-10-12T14:31:18.684Z,60.36
2022-10-12T14:36:20.389Z,61.22
2022-10-12T14:41:48.916Z,61.93
2022-10-12T14:44:17.859Z,61.82
2022-10-12T14:46:54.301Z,61.94
2022-10-12T14:49:22.540Z,61.59
2022-10-12T14:51:50.032Z,61.59
2022-10-12T14:54:16.436Z,61.55
2022-10-12T14:56:42.848Z,61.32
2022-10-12T15:09:04.654Z,62.41
2022-10-12T15:16:27.007Z,63.00
2022-10-12T15:18:53.831Z,63.42
2022-10-12T15:21:20.520Z,63.61
2022-10-12T15:23:46.993Z,63.85
2022-10-12T15:28:40.779Z,63.67
2022-10-12T15:31:22.530Z,63.52
2022-10-12T15:33:48.878Z,63.54
2022-10-12T15:38:41.535Z,64.15
2022-10-12T15:41:17.075Z,65.20
2022-10-12T15:46:11.235Z,65.24
2022-10-12T15:48:39.494Z,65.35
2022-10-12T15:51:15.759Z,65.44
2022-10-12T15:56:13.162Z,65.56
2022-10-12T16:01:06.272Z,65.88
2022-10-12T16:03:32.759Z,66.01
2022-10-12T16:05:59.383Z,66.40
2022-10-12T16:10:52.267Z,67.20
2022-10-12T16:13:18.644Z,67.42
2022-10-12T16:23:07.997Z,66.98
2022-10-12T16:25:34.939Z,67.26
2022-10-12T16:28:01.380Z,67.87
2022-10-12T16:30:27.822Z,68.40
2022-10-12T16:32:54.218Z,69.12
2022-10-12T16:35:20.703Z,69.44
2022-10-12T16:37:47.078Z,69.75
2022-10-12T16:40:14.012Z,69.99
2022-10-12T16:45:07.255Z,70.26
2022-10-12T16:47:35.848Z,70.38
2022-10-12T16:50:06.099Z,70.52
2022-10-12T16:52:32.671Z,70.70
2022-10-12T16:54:59.023Z,71.41
2022-10-12T16:59:51.652Z,72.11
2022-10-12T17:02:19.066Z,72.32
2022-10-12T17:04:46.840Z,72.42
2022-10-12T17:07:13.721Z,72.88
2022-10-12T17:12:06.613Z,73.36
2022-10-12T17:14:32.966Z,73.65
2022-10-12T17:16:59.277Z,74.23
2022-10-12T17:21:52.994Z,74.27
2022-10-12T17:24:21.113Z,74.32
2022-10-12T17:29:16.811Z,74.54
2022-10-12T17:31:43.207Z,74.25
2022-10-12T17:34:22.897Z,74.05
2022-10-12T17:36:50.191Z,74.13
2022-10-12T17:39:17.126Z,74.26
2022-10-12T17:41:43.616Z,74.36
2022-10-12T17:44:11.251Z,74.50
2022-10-12T17:49:10.986Z,74.72
2022-10-12T17:58:58.730Z,76.01
2022-10-12T18:03:55.161Z,76.78
2022-10-12T18:06:23.590Z,77.16
2022-10-12T18:11:19.369Z,77.62
2022-10-12T18:13:51.140Z,77.86
2022-10-12T18:16:20.313Z,78.21
2022-10-12T18:18:50.597Z,78.39
2022-10-12T18:26:12.673Z,79.02
2022-10-12T18:31:06.611Z,79.31
2022-10-12T18:33:33.712Z,79.41
2022-10-12T18:36:07.063Z,79.78
2022-10-12T18:38:33.880Z,80.25
2022-10-12T18:41:05.191Z,80.55
2022-10-12T18:43:31.875Z,80.91
2022-10-12T18:45:58.211Z,80.04
2022-10-12T18:48:24.630Z,80.37
2022-10-12T18:50:52.453Z,80.79
2022-10-12T18:53:19.921Z,80.99
2022-10-12T18:55:46.246Z,81.22
2022-10-12T18:58:12.622Z,81.44
2022-10-12T19:00:40.365Z,81.55
2022-10-12T19:05:33.081Z,81.65
2022-10-12T19:07:59.412Z,81.89
2022-10-12T19:15:18.242Z,82.21
2022-10-12T19:17:44.553Z,82.37
2022-10-12T19:20:11.154Z,82.48
2022-10-12T19:25:04.186Z,82.67
2022-10-12T19:27:30.561Z,82.94
2022-10-12T19:29:56.893Z,83.22
2022-10-12T19:32:23.206Z,83.24
2022-10-12T19:34:52.598Z,83.56
2022-10-12T19:37:18.977Z,82.77
2022-10-12T19:39:46.947Z,83.65
2022-10-12T19:42:13.273Z,83.88
2022-10-12T19:44:39.585Z,83.92
2022-10-12T19:47:06.002Z,83.93
2022-10-12T19:49:36.583Z,84.16
2022-10-12T19:52:03.690Z,84.31
2022-10-12T19:54:34.073Z,84.45
2022-10-12T19:57:02.299Z,84.72
2022-10-12T19:59:28.644Z,85.07
2022-10-12T20:01:54.964Z,85.38
2022-10-12T20:04:21.382Z,85.26
2022-10-12T20:06:47.722Z,85.41
2022-10-12T20:09:14.149Z,85.66
2022-10-12T20:11:40.617Z,85.70
2022-10-12T20:14:07.476Z,85.73
2022-10-12T20:16:35.207Z,85.83
2022-10-12T20:19:02.724Z,85.59
2022-10-12T20:21:29.095Z,85.49
2022-10-12T20:23:55.493Z,85.60
2022-10-12T20:26:24.865Z,85.74
2022-10-12T20:28:52.763Z,86.07
2022-10-12T20:31:22.877Z,86.31
2022-10-12T20:36:23.846Z,86.70
2022-10-12T20:38:51.308Z,86.79
2022-10-12T20:41:17.782Z,86.85
2022-10-12T20:43:44.646Z,86.85
2022-10-12T20:46:15.221Z,86.89
2022-10-12T20:48:44.153Z,86.82
2022-10-12T20:51:18.988Z,86.95
2022-10-12T20:53:45.344Z,86.96
2022-10-12T20:56:11.679Z,87.05
2022-10-12T20:58:38.132Z,87.14
2022-10-12T21:01:11.090Z,87.18
2022-10-12T21:06:07.020Z,87.67
2022-10-12T21:11:00.200Z,87.79
2022-10-12T21:13:30.553Z,87.84
2022-10-12T21:15:57.020Z,87.84
2022-10-12T21:18:23.374Z,87.84
2022-10-12T21:21:05.154Z,87.90
2022-10-12T21:23:31.541Z,88.06
2022-10-12T21:25:57.871Z,87.96
2022-10-12T21:28:24.279Z,88.01
2022-10-12T21:30:50.940Z,88.19
2022-10-12T21:38:10.276Z,88.60
2022-10-12T21:40:36.791Z,88.82
2022-10-12T21:45:29.492Z,89.01
2022-10-12T21:47:55.820Z,89.12
2022-10-12T21:50:22.232Z,89.12
2022-10-12T21:52:50.149Z,89.09
2022-10-12T21:55:16.798Z,89.10
2022-10-12T21:57:43.490Z,88.95
2022-10-12T22:00:10.454Z,88.96
2022-10-12T22:02:39.658Z,89.07
2022-10-12T22:05:06.212Z,88.99
2022-10-12T22:07:32.598Z,89.09
2022-10-12T22:09:58.922Z,89.09
2022-10-12T22:12:25.256Z,89.33
2022-10-12T22:14:51.581Z,89.45
2022-10-12T22:17:20.753Z,89.63
2022-10-12T22:19:47.080Z,89.63
2022-10-12T22:22:13.402Z,89.82
2022-10-12T22:24:39.700Z,89.88
2022-10-12T22:27:06.012Z,90.10
2022-10-12T22:29:32.442Z,90.08
2022-10-12T22:31:59.109Z,90.13
2022-10-12T22:34:25.486Z,90.36
2022-10-12T22:36:51.901Z,90.48
2022-10-12T22:39:23.701Z,90.66
2022-10-12T22:41:50.029Z,90.72
2022-10-12T22:44:16.361Z,91.00
2022-10-12T22:46:42.770Z,91.20
2022-10-12T22:51:39.037Z,91.55
2022-10-12T22:54:06.026Z,91.67
2022-10-12T22:56:32.820Z,91.53
2022-10-12T22:59:01.785Z,91.62
2022-10-12T23:01:28.751Z,91.43
2022-10-12T23:03:55.360Z,91.54
2022-10-12T23:06:23.180Z,91.44
2022-10-12T23:08:49.528Z,91.46
2022-10-12T23:13:47.996Z,91.67
2022-10-12T23:16:34.610Z,91.81
2022-10-12T23:19:04.229Z,91.97
2022-10-12T23:21:32.922Z,91.83
2022-10-12T23:24:00.621Z,92.00
2022-10-12T23:26:28.465Z,92.24
2022-10-12T23:28:55.063Z,92.37
2022-10-12T23:31:24.168Z,92.48
2022-10-12T23:34:00.315Z,92.67
2022-10-12T23:36:27.463Z,92.94
2022-10-12T23:38:54.420Z,93.08
2022-10-12T23:41:21.178Z,93.32
2022-10-12T23:43:47.537Z,93.49
2022-10-12T23:46:13.875Z,93.66
2022-10-12T23:48:40.677Z,93.70
2022-10-12T23:53:35.115Z,93.79
2022-10-12T23:56:01.445Z,93.84
2022-10-12T23:58:27.750Z,93.82
